Time;durP1;ratioP1;P1;durP2;ratioP2;P2;SDS_P1;SDS_P2;PMS_P1;PMS_P2;Temp;Humidity;BMP_temperature;BMP_pressure;BME280_temperature;BME280_humidity;BME280_pressure;Samples;Min_cycle;Max_cycle;Signal;HPM_P1;HPM_P2
2023/12/14 00:02:02;;;;;;;2.03;1.00;;;;;;;6.62;95.68;100177.72;5055122;28;20111;-74
2023/12/14 00:04:27;;;;;;;0.82;0.80;;;;;;;6.82;95.44;100174.09;5052100;28;20573;-73
2023/12/14 00:06:53;;;;;;;0.65;0.60;;;;;;;6.69;95.41;100172.59;5063306;28;20036;-73
2023/12/14 00:09:18;;;;;;;1.20;0.85;;;;;;;6.60;95.71;100174.59;5062740;28;20035;-74
2023/12/14 00:11:49;;;;;;;1.00;0.93;;;;;;;6.60;96.31;100184.53;5071314;28;20029;-73
2023/12/14 00:14:17;;;;;;;1.65;1.10;;;;;;;6.71;96.03;100181.06;5069047;28;20059;-73
2023/12/14 00:16:45;;;;;;;5.75;1.25;;;;;;;6.74;96.08;100185.72;5070482;28;20124;-73
2023/12/14 00:19:10;;;;;;;0.70;0.70;;;;;;;6.74;95.12;100192.94;5056114;28;20037;-73
2023/12/14 00:21:36;;;;;;;0.93;0.60;;;;;;;6.76;95.37;100201.41;5059382;28;20036;-73
2023/12/14 00:24:02;;;;;;;0.95;0.80;;;;;;;6.75;95.54;100208.69;5061663;28;20418;-73
2023/12/14 00:26:27;;;;;;;2.55;1.15;;;;;;;6.87;95.06;100218.56;5057979;28;20040;-74
2023/12/14 00:28:52;;;;;;;1.00;0.90;;;;;;;6.83;95.19;100210.41;5052768;28;20041;-73
2023/12/14 00:31:18;;;;;;;3.45;0.70;;;;;;;6.90;95.00;100213.31;5071396;28;20024;-73
2023/12/14 00:33:44;;;;;;;0.85;0.80;;;;;;;6.80;95.08;100224.50;5037893;28;20093;-73
2023/12/14 00:36:16;;;;;;;0.70;0.70;;;;;;;6.65;95.89;100219.84;5061777;28;20480;-74
2023/12/14 00:38:42;;;;;;;3.70;0.73;;;;;;;6.72;96.15;100228.06;5060127;28;20492;-73
2023/12/14 00:41:10;;;;;;;1.95;0.60;;;;;;;6.88;95.35;100225.47;5064396;28;20036;-73
2023/12/14 00:43:36;;;;;;;1.27;0.68;;;;;;;6.77;95.26;100232.41;5067710;28;20031;-73
2023/12/14 00:46:02;;;;;;;1.23;0.75;;;;;;;6.85;95.08;100236.84;5068840;28;20028;-73
2023/12/14 00:48:28;;;;;;;0.73;0.73;;;;;;;6.76;95.66;100242.34;5054272;28;20129;-73
2023/12/14 00:50:53;;;;;;;1.48;0.82;;;;;;;6.71;96.26;100239.13;5073255;28;20107;-74
2023/12/14 00:53:21;;;;;;;0.98;0.80;;;;;;;6.84;95.79;100252.13;5053473;28;20029;-73
2023/12/14 00:55:50;;;;;;;0.88;0.73;;;;;;;6.80;95.90;100251.25;5068265;28;20043;-73
2023/12/14 00:58:15;;;;;;;0.82;0.57;;;;;;;6.78;96.15;100258.03;5065322;28;20028;-74
2023/12/14 01:00:41;;;;;;;0.50;0.50;;;;;;;6.58;96.59;100257.09;5073866;28;20028;-74
2023/12/14 01:03:06;;;;;;;1.63;1.00;;;;;;;6.50;97.06;100266.03;5058745;28;20071;-74
2023/12/14 01:05:32;;;;;;;1.33;1.13;;;;;;;6.45;97.28;100268.94;5062336;28;20419;-74
2023/12/14 01:08:00;;;;;;;0.40;0.40;;;;;;;6.53;97.00;100276.03;5063512;28;20043;-74
2023/12/14 01:10:29;;;;;;;0.55;0.50;;;;;;;6.69;97.68;100279.59;5069701;28;20055;-73
2023/12/14 01:12:55;;;;;;;0.63;0.60;;;;;;;6.72;96.56;100275.44;5052524;28;20407;-74
2023/12/14 01:15:20;;;;;;;2.25;0.80;;;;;;;6.77;96.82;100280.59;5052567;28;20390;-74
2023/12/14 01:17:45;;;;;;;1.80;0.52;;;;;;;6.80;96.30;100279.88;5058750;28;20028;-73
2023/12/14 01:20:11;;;;;;;0.60;0.47;;;;;;;6.77;95.79;100289.41;5061390;28;20028;-73
2023/12/14 01:22:36;;;;;;;0.70;0.60;;;;;;;6.72;96.30;100288.81;5059046;28;20080;-74
2023/12/14 01:25:02;;;;;;;0.40;0.40;;;;;;;6.64;96.55;100301.22;5056908;28;20024;-74
2023/12/14 01:27:27;;;;;;;4.45;0.60;;;;;;;6.78;95.89;100298.97;5053708;28;20080;-73
2023/12/14 01:29:53;;;;;;;0.40;0.40;;;;;;;6.83;96.36;100308.66;5053509;28;20037;-74
2023/12/14 01:32:19;;;;;;;0.70;0.60;;;;;;;6.61;95.99;100303.78;5035861;28;20033;-74
2023/12/14 01:34:44;;;;;;;0.40;0.40;;;;;;;6.76;95.94;100306.56;5051253;28;20039;-74
2023/12/14 01:37:11;;;;;;;0.60;0.50;;;;;;;6.80;96.01;100310.13;5078250;28;20025;-74
2023/12/14 01:39:37;;;;;;;4.70;0.40;;;;;;;6.91;95.80;100310.44;5060481;28;20529;-73
2023/12/14 01:42:02;;;;;;;0.40;0.40;;;;;;;6.84;95.91;100318.25;5076035;28;20024;-73
2023/12/14 01:44:28;;;;;;;0.40;0.40;;;;;;;6.68;96.11;100320.81;5062416;28;20013;-73
2023/12/14 01:46:53;;;;;;;0.70;0.57;;;;;;;6.75;96.83;100328.31;5059609;28;20028;-73
2023/12/14 01:49:18;;;;;;;0.45;0.45;;;;;;;6.84;96.10;100319.03;5036090;28;20504;-74
2023/12/14 01:51:44;;;;;;;2.25;0.60;;;;;;;6.90;94.78;100328.38;5059649;28;20024;-73
2023/12/14 01:54:09;;;;;;;0.40;0.40;;;;;;;6.70;94.87;100323.94;5070540;28;20025;-74
2023/12/14 01:56:34;;;;;;;0.60;0.60;;;;;;;6.64;95.80;100327.97;5061318;28;20109;-74
2023/12/14 01:59:03;;;;;;;1.45;0.52;;;;;;;6.70;96.14;100326.63;5062214;28;20414;-74
2023/12/14 02:01:37;;;;;;;0.57;0.45;;;;;;;6.78;95.84;100336.44;5074116;28;20025;-74
2023/12/14 02:04:03;;;;;;;0.28;0.28;;;;;;;6.58;96.07;100331.22;5075507;28;20036;-74
2023/12/14 02:06:29;;;;;;;0.63;0.47;;;;;;;6.62;96.05;100332.88;5058496;28;20017;-74
2023/12/14 02:08:54;;;;;;;0.50;0.50;;;;;;;6.73;96.34;100334.00;5078920;28;20423;-74
2023/12/14 02:11:20;;;;;;;1.90;0.65;;;;;;;6.71;96.13;100332.75;5054929;28;20033;-74
2023/12/14 02:13:45;;;;;;;0.50;0.50;;;;;;;6.87;95.91;100339.75;5052684;28;20025;-74
2023/12/14 02:16:10;;;;;;;0.57;0.55;;;;;;;6.83;95.13;100338.84;5052626;28;20041;-74
2023/12/14 02:18:37;;;;;;;0.40;0.40;;;;;;;6.63;95.84;100342.47;5055032;28;20499;-74
2023/12/14 02:21:02;;;;;;;0.50;0.50;;;;;;;6.81;95.49;100340.34;5047920;28;20039;-74
2023/12/14 02:23:28;;;;;;;0.98;0.40;;;;;;;6.87;95.33;100349.69;5050164;28;20107;-73
2023/12/14 02:25:53;;;;;;;0.20;0.20;;;;;;;6.90;94.87;100349.00;5061647;28;20418;-74
2023/12/14 02:28:19;;;;;;;0.70;0.70;;;;;;;6.92;95.23;100352.91;5058112;28;21492;-74
2023/12/14 02:30:44;;;;;;;1.65;1.27;;;;;;;6.77;95.39;100356.28;5060223;28;20119;-74
2023/12/14 02:33:10;;;;;;;1.75;0.65;;;;;;;6.98;95.66;100369.53;5054176;28;20126;-73
2023/12/14 02:35:38;;;;;;;0.93;0.68;;;;;;;6.88;94.63;100352.03;5058471;28;20032;-74
2023/12/14 02:38:03;;;;;;;0.73;0.60;;;;;;;6.93;95.74;100353.69;5067262;28;20081;-73
2023/12/14 02:40:28;;;;;;;0.70;0.60;;;;;;;6.98;94.93;100350.78;5061915;28;20427;-73
2023/12/14 02:42:54;;;;;;;1.15;0.65;;;;;;;7.03;94.58;100366.59;5056214;28;20120;-74
2023/12/14 02:45:22;;;;;;;1.17;0.85;;;;;;;6.90;94.71;100360.50;5058078;28;20509;-73
2023/12/14 02:47:51;;;;;;;0.80;0.68;;;;;;;6.91;94.74;100374.66;5055236;28;20068;-73
2023/12/14 02:50:17;;;;;;;0.40;0.40;;;;;;;6.87;94.91;100363.84;5073781;28;20036;-74
2023/12/14 02:52:43;;;;;;;0.68;0.68;;;;;;;6.98;94.70;100372.19;5066915;28;20513;-74
2023/12/14 02:55:08;;;;;;;0.80;0.38;;;;;;;7.04;94.28;100371.63;5067555;28;20044;-74
2023/12/14 02:57:34;;;;;;;0.60;0.60;;;;;;;7.02;94.20;100376.53;5057567;28;20070;-73
2023/12/14 02:59:59;;;;;;;0.30;0.30;;;;;;;6.90;95.35;100383.78;5055771;28;20037;-74
2023/12/14 03:02:24;;;;;;;0.90;0.70;;;;;;;6.99;94.91;100387.91;5072551;28;20044;-74
2023/12/14 03:04:50;;;;;;;0.90;0.60;;;;;;;7.05;94.28;100389.25;5072068;28;20135;-73
2023/12/14 03:07:15;;;;;;;0.80;0.57;;;;;;;7.03;94.83;100388.78;5062833;28;20037;-74
2023/12/14 03:09:43;;;;;;;0.95;0.63;;;;;;;7.05;94.53;100393.81;5061291;28;20040;-74
2023/12/14 03:12:08;;;;;;;0.47;0.47;;;;;;;7.08;94.36;100391.22;5055791;28;20128;-73
2023/12/14 03:14:34;;;;;;;0.68;0.68;;;;;;;7.12;94.13;100388.69;5070765;28;20474;-74
2023/12/14 03:17:00;;;;;;;0.50;0.45;;;;;;;7.10;94.05;100394.34;5053282;28;20047;-73
2023/12/14 03:19:25;;;;;;;1.02;0.93;;;;;;;7.12;94.04;100402.06;5056772;28;20044;-74
2023/12/14 03:21:50;;;;;;;0.60;0.60;;;;;;;7.15;94.41;100412.09;5060367;28;20060;-74
2023/12/14 03:24:16;;;;;;;1.05;0.47;;;;;;;7.13;94.60;100417.00;5063924;28;20040;-74
2023/12/14 03:26:42;;;;;;;1.10;1.00;;;;;;;7.01;94.78;100425.03;5064475;28;20063;-74
2023/12/14 03:29:07;;;;;;;2.05;0.88;;;;;;;7.07;94.65;100421.03;5077583;28;20041;-74
2023/12/14 03:31:33;;;;;;;0.55;0.55;;;;;;;7.07;95.07;100424.50;5061839;28;20064;-73
2023/12/14 03:33:59;;;;;;;0.50;0.50;;;;;;;7.11;94.84;100436.09;5058882;28;20052;-73
2023/12/14 03:36:26;;;;;;;0.63;0.40;;;;;;;7.17;94.72;100437.41;5056297;28;20537;-73
2023/12/14 03:38:52;;;;;;;0.30;0.30;;;;;;;7.09;94.67;100445.56;5071437;28;20040;-74
2023/12/14 03:41:20;;;;;;;1.00;0.75;;;;;;;7.01;95.24;100447.25;5073076;28;20024;-74
2023/12/14 03:43:46;;;;;;;0.70;0.45;;;;;;;7.00;94.74;100450.25;5070500;28;20123;-74
2023/12/14 03:46:11;;;;;;;0.55;0.55;;;;;;;6.98;95.11;100461.31;5059452;28;20043;-74
2023/12/14 03:48:37;;;;;;;1.08;0.80;;;;;;;6.97;94.97;100457.06;5066035;28;20067;-74
2023/12/14 03:51:03;;;;;;;1.85;0.90;;;;;;;6.90;94.50;100464.09;5050183;28;21378;-74
2023/12/14 03:53:29;;;;;;;1.25;0.65;;;;;;;6.87;94.81;100454.06;5077550;28;20516;-74
2023/12/14 03:55:55;;;;;;;1.08;0.80;;;;;;;6.98;94.81;100464.00;5079757;28;20059;-74
2023/12/14 03:58:20;;;;;;;0.47;0.47;;;;;;;6.76;94.82;100467.09;5051728;28;20040;-74
2023/12/14 04:00:46;;;;;;;1.30;0.60;;;;;;;6.77;95.31;100466.00;5051546;28;20072;-74
2023/12/14 04:03:11;;;;;;;0.60;0.60;;;;;;;6.94;94.95;100463.09;5056347;28;20059;-74
2023/12/14 04:05:38;;;;;;;0.75;0.47;;;;;;;6.77;94.64;100467.88;5056283;28;20044;-74
2023/12/14 04:08:04;;;;;;;0.70;0.70;;;;;;;6.80;94.98;100473.34;5058990;28;20034;-74
2023/12/14 04:10:33;;;;;;;0.60;0.57;;;;;;;7.00;93.50;100469.78;5062127;28;20041;-74
2023/12/14 04:12:58;;;;;;;0.82;0.75;;;;;;;6.95;94.03;100469.22;5059425;28;20127;-74
2023/12/14 04:15:23;;;;;;;1.02;0.95;;;;;;;6.96;93.98;100476.13;5054386;28;20060;-73
2023/12/14 04:17:49;;;;;;;0.60;0.50;;;;;;;6.97;94.00;100475.78;5057025;28;20060;-73
2023/12/14 04:20:15;;;;;;;0.73;0.55;;;;;;;7.03;94.26;100482.50;5055320;28;20033;-74
2023/12/14 04:22:43;;;;;;;0.65;0.65;;;;;;;6.88;93.96;100485.84;5062180;28;20048;-74
2023/12/14 04:25:08;;;;;;;1.27;0.90;;;;;;;6.80;94.42;100491.28;5063452;28;20036;-74
2023/12/14 04:27:34;;;;;;;1.38;0.85;;;;;;;6.81;94.37;100488.28;5077929;28;20031;-73
2023/12/14 04:29:59;;;;;;;0.75;0.75;;;;;;;6.61;94.88;100497.19;5063445;28;20470;-74
2023/12/14 04:32:25;;;;;;;0.80;0.55;;;;;;;6.69;95.30;100492.84;5069012;28;20453;-73
2023/12/14 04:34:50;;;;;;;0.50;0.50;;;;;;;6.83;95.16;100502.09;5052711;28;20426;-74
2023/12/14 04:37:16;;;;;;;1.13;0.82;;;;;;;6.89;94.55;100503.44;5054209;28;20028;-74
2023/12/14 04:39:44;;;;;;;1.10;0.90;;;;;;;6.99;94.10;100510.25;5053641;28;20028;-74
2023/12/14 04:42:09;;;;;;;0.57;0.52;;;;;;;6.99;93.77;100505.69;5080004;28;20063;-74
2023/12/14 04:44:35;;;;;;;0.77;0.75;;;;;;;6.98;93.68;100500.66;5066128;28;20601;-73
2023/12/14 04:47:00;;;;;;;4.20;0.90;;;;;;;7.05;93.90;100495.53;5047065;28;20378;-74
2023/12/14 04:49:26;;;;;;;1.42;0.77;;;;;;;7.02;93.61;100502.34;5068319;28;20109;-74
2023/12/14 04:51:51;;;;;;;0.60;0.60;;;;;;;6.83;94.30;100512.03;5067648;28;20127;-74
2023/12/14 04:54:17;;;;;;;0.95;0.90;;;;;;;6.88;94.28;100517.97;5060918;28;20033;-73
2023/12/14 04:56:45;;;;;;;1.33;1.00;;;;;;;7.00;93.88;100519.84;5065803;28;20024;-73
2023/12/14 04:59:11;;;;;;;1.00;0.70;;;;;;;6.80;94.70;100526.06;5060731;28;20040;-74
2023/12/14 05:01:36;;;;;;;0.68;0.65;;;;;;;6.91;94.64;100527.22;5053129;28;20038;-73
2023/12/14 05:04:02;;;;;;;1.70;0.95;;;;;;;6.90;94.43;100531.78;5054677;28;20510;-73
2023/12/14 05:06:28;;;;;;;0.93;0.50;;;;;;;7.01;94.20;100532.91;5056159;28;20055;-73
2023/12/14 05:08:54;;;;;;;1.40;0.73;;;;;;;7.02;93.91;100541.72;5054002;28;20075;-73
2023/12/14 05:11:19;;;;;;;0.82;0.73;;;;;;;7.03;94.36;100541.38;5059722;28;20044;-73
2023/12/14 05:13:45;;;;;;;1.88;1.02;;;;;;;7.03;93.99;100551.31;5063408;28;20097;-73
2023/12/14 05:16:14;;;;;;;4.47;0.70;;;;;;;7.01;93.99;100558.88;5062015;28;20443;-73
2023/12/14 05:18:40;;;;;;;1.45;0.85;;;;;;;7.08;93.22;100559.88;5060039;28;20074;-73
2023/12/14 05:21:05;;;;;;;2.75;1.02;;;;;;;7.05;93.12;100549.88;5057460;28;20121;-73
2023/12/14 05:23:31;;;;;;;1.77;1.05;;;;;;;7.01;94.28;100548.19;5062948;28;20028;-73
2023/12/14 05:25:56;;;;;;;0.63;0.63;;;;;;;7.03;94.05;100549.41;5061832;28;20024;-73
2023/12/14 05:28:22;;;;;;;1.70;1.20;;;;;;;6.96;94.74;100557.22;5051519;28;20044;-74
2023/12/14 05:30:48;;;;;;;3.65;1.40;;;;;;;6.89;95.58;100562.31;5050492;28;20040;-74
2023/12/14 05:33:13;;;;;;;6.43;1.10;;;;;;;6.93;95.09;100562.47;5050933;28;20068;-73
2023/12/14 05:35:39;;;;;;;1.13;1.00;;;;;;;6.98;95.49;100568.38;5037076;28;20036;-74
2023/12/14 05:38:04;;;;;;;1.48;1.23;;;;;;;7.01;95.30;100578.41;5058133;28;20036;-73
2023/12/14 05:40:31;;;;;;;2.53;1.45;;;;;;;6.76;95.71;100576.00;5072625;28;22653;-73
2023/12/14 05:42:57;;;;;;;1.67;0.90;;;;;;;6.86;95.87;100579.06;5060316;28;20125;-73
2023/12/14 05:45:22;;;;;;;1.58;1.00;;;;;;;6.87;95.73;100580.59;5054242;28;20067;-73
2023/12/14 05:47:48;;;;;;;4.78;0.90;;;;;;;6.84;95.85;100585.84;5051463;28;20044;-73
2023/12/14 05:50:13;;;;;;;1.45;1.05;;;;;;;6.64;96.28;100587.47;5052672;28;20037;-73
2023/12/14 05:52:40;;;;;;;1.52;0.75;;;;;;;6.72;95.70;100589.28;5059460;28;20033;-73
2023/12/14 05:55:10;;;;;;;1.00;0.85;;;;;;;6.90;95.66;100598.69;5075482;28;20162;-73
2023/12/14 05:57:35;;;;;;;0.75;0.70;;;;;;;6.95;95.04;100597.72;5058898;28;20081;-73
2023/12/14 06:00:01;;;;;;;1.98;1.35;;;;;;;6.85;95.55;100606.16;5057480;28;20555;-73
2023/12/14 06:02:26;;;;;;;2.00;1.20;;;;;;;6.97;95.28;100609.63;5074510;28;20510;-74
2023/12/14 06:04:51;;;;;;;3.03;1.40;;;;;;;7.01;94.63;100612.41;5061411;28;20031;-73
2023/12/14 06:07:17;;;;;;;0.82;0.73;;;;;;;6.98;95.17;100618.44;5064556;28;20025;-73
2023/12/14 06:09:44;;;;;;;1.10;0.80;;;;;;;7.05;94.90;100630.19;5051857;28;20041;-74
2023/12/14 06:12:13;;;;;;;1.85;1.15;;;;;;;7.08;94.46;100626.81;5052030;28;20036;-74
2023/12/14 06:14:38;;;;;;;1.63;1.10;;;;;;;7.11;94.32;100622.72;5053883;28;20024;-73
2023/12/14 06:17:04;;;;;;;1.35;1.08;;;;;;;7.13;93.89;100625.84;5059397;28;20025;-74
2023/12/14 06:19:29;;;;;;;2.65;1.20;;;;;;;7.07;94.74;100629.84;5068442;28;20035;-74
2023/12/14 06:21:54;;;;;;;2.15;1.10;;;;;;;6.95;95.01;100635.94;5049014;28;20535;-74
2023/12/14 06:24:22;;;;;;;1.58;0.80;;;;;;;7.03;94.71;100640.44;5056707;28;20041;-73
2023/12/14 06:26:48;;;;;;;2.25;1.40;;;;;;;6.99;94.43;100633.38;5045484;28;20032;-74
2023/12/14 06:29:13;;;;;;;1.52;1.38;;;;;;;6.93;95.62;100632.81;5050219;28;20036;-74
2023/12/14 06:31:39;;;;;;;1.70;0.95;;;;;;;6.97;95.07;100636.41;5054345;28;20028;-75
2023/12/14 06:34:05;;;;;;;2.05;1.45;;;;;;;7.01;95.42;100633.84;5050674;28;20024;-75
2023/12/14 06:36:31;;;;;;;3.03;1.35;;;;;;;6.95;94.71;100640.53;5051699;28;20029;-75
2023/12/14 06:39:01;;;;;;;1.10;1.00;;;;;;;7.01;95.52;100657.94;5068334;28;20033;-75
2023/12/14 06:41:28;;;;;;;2.53;1.02;;;;;;;7.07;95.09;100651.25;5052094;28;20130;-75
2023/12/14 06:43:54;;;;;;;2.65;1.38;;;;;;;7.05;94.88;100662.31;5048425;28;20559;-75
2023/12/14 06:46:20;;;;;;;2.50;1.60;;;;;;;7.06;94.92;100657.75;5051374;28;20033;-74
2023/12/14 06:48:46;;;;;;;2.63;1.20;;;;;;;7.09;94.56;100654.38;5052676;28;20041;-76
2023/12/14 06:51:12;;;;;;;1.13;0.93;;;;;;;6.98;95.70;100655.94;5058031;28;20025;-75
2023/12/14 06:53:41;;;;;;;1.45;1.33;;;;;;;7.06;95.95;100671.91;5057992;28;20033;-74
2023/12/14 06:56:10;;;;;;;0.98;0.88;;;;;;;7.01;95.67;100674.78;5063454;28;20502;-74
2023/12/14 06:58:40;;;;;;;1.15;1.05;;;;;;;7.10;95.63;100680.81;5063787;28;20032;-74
2023/12/14 07:01:05;;;;;;;1.85;1.48;;;;;;;7.12;95.35;100691.22;5061509;28;20037;-74
2023/12/14 07:03:31;;;;;;;3.80;1.20;;;;;;;7.17;95.13;100691.00;5060470;28;20039;-75
2023/12/14 07:05:57;;;;;;;2.13;1.27;;;;;;;7.18;94.92;100688.00;5062655;28;20032;-75
2023/12/14 07:08:23;;;;;;;2.17;1.45;;;;;;;7.21;94.52;100691.91;5082673;28;20036;-75
2023/12/14 07:10:49;;;;;;;2.35;1.10;;;;;;;7.21;94.61;100698.06;5050261;28;20047;-74
2023/12/14 07:13:14;;;;;;;2.17;0.98;;;;;;;7.21;94.61;100695.38;5068571;28;20039;-75
2023/12/14 07:15:40;;;;;;;0.90;0.90;;;;;;;7.23;94.28;100701.19;5061386;28;20610;-74
2023/12/14 07:18:05;;;;;;;1.23;0.85;;;;;;;7.23;94.37;100703.06;5054212;28;20032;-74
2023/12/14 07:20:30;;;;;;;1.50;1.20;;;;;;;7.23;94.23;100705.75;5061233;28;20041;-75
2023/12/14 07:22:59;;;;;;;1.35;1.08;;;;;;;7.22;94.50;100710.31;5073740;28;20043;-74
2023/12/14 07:25:24;;;;;;;1.30;0.88;;;;;;;7.22;94.71;100709.53;5067744;28;20036;-74
2023/12/14 07:27:50;;;;;;;1.23;0.77;;;;;;;7.21;94.59;100716.81;5066459;28;20036;-75
2023/12/14 07:30:19;;;;;;;2.80;1.33;;;;;;;7.20;94.79;100715.22;5063912;28;20047;-75
2023/12/14 07:32:44;;;;;;;5.20;1.48;;;;;;;7.23;94.74;100729.84;5067276;28;20016;-75
2023/12/14 07:35:11;;;;;;;1.00;0.95;;;;;;;7.24;95.17;100736.75;5079086;28;20579;-75
2023/12/14 07:37:39;;;;;;;1.10;0.82;;;;;;;7.25;95.01;100736.47;5069179;28;20041;-76
2023/12/14 07:40:05;;;;;;;2.67;1.45;;;;;;;7.27;95.06;100750.31;5070128;28;20045;-76
2023/12/14 07:42:31;;;;;;;3.38;1.27;;;;;;;7.35;94.26;100753.22;5064818;28;20027;-75
2023/12/14 07:44:57;;;;;;;2.33;1.25;;;;;;;7.36;94.09;100757.44;5063304;28;20624;-76
2023/12/14 07:47:25;;;;;;;0.95;0.90;;;;;;;7.26;95.03;100775.50;5062014;28;20044;-74
2023/12/14 07:49:50;;;;;;;1.65;1.10;;;;;;;7.29;94.99;100774.88;5066305;28;20037;-74
2023/12/14 07:52:18;;;;;;;6.38;1.48;;;;;;;7.27;95.40;100779.75;5066868;28;20028;-75
2023/12/14 07:54:44;;;;;;;1.08;0.80;;;;;;;7.32;95.07;100784.09;5066620;28;20050;-75
2023/12/14 07:57:09;;;;;;;1.67;1.15;;;;;;;7.34;95.20;100784.56;5068089;28;20483;-75
2023/12/14 07:59:34;;;;;;;1.20;1.10;;;;;;;7.32;94.88;100784.09;5058358;28;20041;-75
2023/12/14 08:02:00;;;;;;;2.40;0.88;;;;;;;7.31;95.52;100793.28;5062180;28;20040;-75
2023/12/14 08:04:25;;;;;;;4.65;1.83;;;;;;;7.30;95.04;100797.84;5067869;28;20028;-75
2023/12/14 08:06:51;;;;;;;1.92;1.52;;;;;;;7.26;95.60;100804.97;5069978;28;20032;-75
2023/12/14 08:09:16;;;;;;;1.90;1.00;;;;;;;7.29;96.21;100815.03;5063725;28;20029;-76
2023/12/14 08:11:42;;;;;;;2.28;1.02;;;;;;;7.32;95.80;100817.03;5067391;28;20042;-74
2023/12/14 08:14:07;;;;;;;2.88;1.15;;;;;;;7.37;95.39;100817.94;5065014;28;20071;-75
2023/12/14 08:16:33;;;;;;;2.85;1.38;;;;;;;7.37;95.41;100826.00;5055365;28;20029;-75
2023/12/14 08:18:58;;;;;;;1.30;0.88;;;;;;;7.40;95.33;100823.44;5057802;28;20040;-74
2023/12/14 08:21:23;;;;;;;1.30;1.20;;;;;;;7.41;95.42;100829.59;5061366;28;20032;-75
2023/12/14 08:23:49;;;;;;;1.23;1.10;;;;;;;7.40;94.99;100831.47;5060908;28;20523;-75
2023/12/14 08:26:15;;;;;;;2.90;1.13;;;;;;;7.36;95.15;100841.28;5065023;28;20498;-75
2023/12/14 08:28:40;;;;;;;1.88;1.17;;;;;;;7.38;95.39;100840.94;5047327;28;20036;-75
2023/12/14 08:31:06;;;;;;;1.83;1.27;;;;;;;7.38;95.30;100840.94;5049454;28;20037;-75
2023/12/14 08:33:31;;;;;;;1.75;1.30;;;;;;;7.39;95.28;100840.63;5059032;28;20135;-75
2023/12/14 08:35:57;;;;;;;1.08;0.88;;;;;;;7.44;95.31;100845.78;5060816;28;20469;-75
2023/12/14 08:38:24;;;;;;;1.42;1.20;;;;;;;7.45;94.94;100849.25;5059112;28;20027;-75
2023/12/14 08:40:49;;;;;;;1.52;1.15;;;;;;;7.38;95.24;100851.66;5079857;28;20406;-75
2023/12/14 08:43:15;;;;;;;6.03;1.80;;;;;;;7.42;95.41;100855.25;5044872;28;20112;-75
2023/12/14 08:45:40;;;;;;;2.95;1.00;;;;;;;7.43;95.42;100859.50;5061324;28;20788;-75
2023/12/14 08:48:06;;;;;;;1.55;1.15;;;;;;;7.43;95.48;100862.97;5060949;28;20025;-72
2023/12/14 08:50:33;;;;;;;1.23;1.13;;;;;;;7.46;95.23;100865.00;5059769;28;20056;-74
2023/12/14 08:52:59;;;;;;;3.33;1.15;;;;;;;7.49;95.53;100858.19;5066745;28;20049;-75
2023/12/14 08:55:24;;;;;;;1.08;0.93;;;;;;;7.51;95.32;100866.69;5075624;28;20059;-74
2023/12/14 08:57:50;;;;;;;5.30;1.20;;;;;;;7.56;95.48;100864.59;5063389;28;20587;-75
2023/12/14 09:00:17;;;;;;;3.47;1.45;;;;;;;7.56;95.10;100867.28;5061349;28;20086;-74
2023/12/14 09:02:45;;;;;;;2.67;1.35;;;;;;;7.59;95.43;100868.53;5061680;28;20414;-75
2023/12/14 09:05:13;;;;;;;1.83;1.05;;;;;;;7.63;95.15;100885.47;5059352;28;20410;-75
2023/12/14 09:07:38;;;;;;;5.78;1.77;;;;;;;7.64;95.23;100884.38;5059098;28;20036;-75
2023/12/14 09:10:04;;;;;;;2.50;1.27;;;;;;;7.59;95.34;100889.94;5056782;28;20051;-75
2023/12/14 09:12:30;;;;;;;3.00;1.90;;;;;;;7.60;95.53;100891.50;5059066;28;20106;-75
2023/12/14 09:14:55;;;;;;;3.53;1.70;;;;;;;7.58;95.34;100894.53;5062489;28;20049;-75
2023/12/14 09:17:21;;;;;;;2.72;1.63;;;;;;;7.68;95.37;100906.72;5062775;28;20033;-75
2023/12/14 09:19:46;;;;;;;2.13;1.10;;;;;;;7.69;95.26;100910.97;5076208;28;20032;-75
2023/12/14 09:22:12;;;;;;;1.63;1.27;;;;;;;7.59;95.74;100906.78;5064208;28;20055;-75
2023/12/14 09:24:37;;;;;;;5.40;1.45;;;;;;;7.60;96.04;100913.72;5055217;28;20561;-75
2023/12/14 09:27:03;;;;;;;1.30;1.23;;;;;;;7.64;95.72;100913.84;5068793;28;20063;-75
2023/12/14 09:29:28;;;;;;;1.30;1.20;;;;;;;7.63;95.93;100923.78;5061028;28;20060;-74
2023/12/14 09:31:54;;;;;;;2.22;1.30;;;;;;;7.66;96.08;100927.72;5056680;28;20045;-74
2023/12/14 09:34:19;;;;;;;2.17;1.77;;;;;;;7.66;95.70;100928.50;5060807;28;20025;-75
2023/12/14 09:36:48;;;;;;;3.42;1.40;;;;;;;7.74;95.46;100932.22;5073726;28;20495;-75
2023/12/14 09:39:15;;;;;;;2.22;1.13;;;;;;;7.74;95.19;100929.53;5063247;28;20061;-74
2023/12/14 09:41:40;;;;;;;1.77;1.40;;;;;;;7.78;95.59;100933.91;5045570;28;20071;-74
2023/12/14 09:44:08;;;;;;;1.73;1.20;;;;;;;7.76;95.33;100938.03;5061205;28;20055;-74
2023/12/14 09:46:36;;;;;;;3.25;1.70;;;;;;;7.78;94.93;100943.84;5062758;28;20435;-74
2023/12/14 09:49:04;;;;;;;2.05;1.17;;;;;;;7.83;95.33;100935.59;5063239;28;20587;-75
2023/12/14 09:51:30;;;;;;;1.40;0.90;;;;;;;7.84;94.90;100939.88;5079197;28;20024;-74
2023/12/14 09:53:58;;;;;;;2.08;1.13;;;;;;;7.83;94.77;100940.97;5060260;28;20044;-74
2023/12/14 09:56:26;;;;;;;1.52;1.30;;;;;;;7.85;94.83;100944.09;5064116;28;20116;-75
2023/12/14 09:58:53;;;;;;;2.13;1.20;;;;;;;7.83;94.96;100954.38;5072660;28;20497;-75
2023/12/14 10:01:24;;;;;;;3.45;1.52;;;;;;;7.87;95.28;100945.34;5060502;28;20426;-74
2023/12/14 10:03:50;;;;;;;1.90;1.10;;;;;;;7.90;95.02;100938.53;5077122;28;21357;-75
2023/12/14 10:06:15;;;;;;;1.02;0.90;;;;;;;7.95;94.40;100947.19;5079137;28;20036;-75
2023/12/14 10:08:41;;;;;;;1.85;1.05;;;;;;;7.94;94.79;100947.47;5063866;28;20017;-75
2023/12/14 10:11:16;;;;;;;3.30;1.33;;;;;;;7.90;94.36;100946.56;5059952;28;20056;-74
2023/12/14 10:13:41;;;;;;;3.70;1.52;;;;;;;7.85;94.35;100946.78;5039850;28;20037;-75
2023/12/14 10:16:07;;;;;;;1.23;0.85;;;;;;;7.96;94.25;100954.09;5059180;28;20343;-75
2023/12/14 10:18:36;;;;;;;6.28;1.40;;;;;;;7.98;94.38;100953.75;5058756;28;20029;-75
2023/12/14 10:21:02;;;;;;;3.58;2.13;;;;;;;7.93;93.96;100962.81;5064244;28;20090;-75
2023/12/14 10:23:27;;;;;;;5.53;1.27;;;;;;;7.91;94.27;100969.59;5059711;28;20443;-74
2023/12/14 10:25:53;;;;;;;1.17;1.00;;;;;;;7.95;94.33;100967.84;5058835;28;20103;-74
2023/12/14 10:28:18;;;;;;;8.43;1.27;;;;;;;8.00;94.18;100973.78;5060179;28;20025;-74
2023/12/14 10:30:44;;;;;;;0.98;0.90;;;;;;;8.05;93.77;100980.84;5061629;28;20459;-74
2023/12/14 10:33:09;;;;;;;3.38;1.52;;;;;;;8.03;93.77;100977.69;5063123;28;20039;-75
2023/12/14 10:35:35;;;;;;;2.22;1.55;;;;;;;8.07;93.89;100987.41;5072737;28;20037;-75
2023/12/14 10:38:05;;;;;;;2.15;1.35;;;;;;;8.10;93.88;100986.78;5059190;28;20055;-75
2023/12/14 10:40:32;;;;;;;2.10;1.15;;;;;;;8.10;93.59;100986.78;5049160;28;20042;-75
2023/12/14 10:42:59;;;;;;;2.63;1.20;;;;;;;8.11;93.24;100992.91;5061003;28;20467;-74
2023/12/14 10:45:30;;;;;;;2.10;1.60;;;;;;;8.13;93.24;100994.16;5062667;28;20029;-74
2023/12/14 10:47:58;;;;;;;1.70;1.05;;;;;;;8.19;93.08;101000.88;5065846;28;20081;-75
2023/12/14 10:50:25;;;;;;;3.25;1.13;;;;;;;8.21;92.84;101012.06;5071963;28;20028;-75
2023/12/14 10:52:50;;;;;;;1.65;0.82;;;;;;;8.23;92.53;101016.34;5063528;28;20495;-75
2023/12/14 10:55:31;;;;;;;2.03;1.10;;;;;;;8.26;92.64;101016.50;5064773;28;20024;-75
2023/12/14 10:57:58;;;;;;;3.33;1.50;;;;;;;8.24;92.23;101024.06;5064516;28;20120;-74
2023/12/14 11:00:23;;;;;;;4.95;1.15;;;;;;;8.25;91.99;101020.28;5068440;28;20036;-75
2023/12/14 11:02:48;;;;;;;1.98;1.13;;;;;;;8.21;91.61;101027.38;5067819;28;20033;-75
2023/12/14 11:05:19;;;;;;;1.85;1.38;;;;;;;8.24;91.59;101029.41;5067512;28;20122;-75
2023/12/14 11:07:54;;;;;;;2.78;1.27;;;;;;;8.25;91.39;101030.22;5065645;28;20043;-74
2023/12/14 11:10:41;;;;;;;1.73;1.08;;;;;;;8.32;90.96;101044.69;5071317;28;20032;-76
2023/12/14 11:13:13;;;;;;;1.20;0.90;;;;;;;8.34;90.71;101050.50;5068875;28;20040;-73
2023/12/14 11:15:40;;;;;;;1.77;1.13;;;;;;;8.37;90.81;101041.78;5066047;28;20135;-73
2023/12/14 11:18:12;;;;;;;1.80;1.05;;;;;;;8.39;90.59;101047.63;5068947;28;20403;-73
2023/12/14 11:20:51;;;;;;;2.75;1.08;;;;;;;8.43;90.52;101051.22;5068979;28;20139;-73
2023/12/14 11:23:19;;;;;;;0.63;0.63;;;;;;;8.48;90.14;101055.59;5062161;28;20052;-74
2023/12/14 11:25:48;;;;;;;2.67;1.73;;;;;;;8.45;90.15;101058.91;5080957;28;20082;-74
2023/12/14 11:28:14;;;;;;;3.45;1.35;;;;;;;8.51;90.05;101061.09;5046669;28;20426;-74
2023/12/14 11:30:40;;;;;;;1.73;1.27;;;;;;;8.48;90.22;101061.72;5060547;28;20116;-74